Time;durP1;ratioP1;P1;durP2;ratioP2;P2;SDS_P1;SDS_P2;PMS_P1;PMS_P2;Temp;Humidity;BMP_temperature;BMP_pressure;BME280_temperature;BME280_humidity;BME280_pressure;Samples;Min_cycle;Max_cycle;Signal;HPM_P1;HPM_P2
2022/06/04 00:01:44;;;;;;;;;;;23.70;99.90;;;;;;4863651;29;19932;-59
2022/06/04 00:04:12;;;;;;;;;;;23.70;99.90;;;;;;4864485;29;19928;-57
2022/06/04 00:06:40;;;;;;;;;;;23.70;99.90;;;;;;4866707;29;20330;-61
2022/06/04 00:09:09;;;;;;;;;;;23.70;99.90;;;;;;4863995;29;19942;-60
2022/06/04 00:17:10;;;;;;;;;;;23.70;99.90;;;;;;4859059;29;19932;-59
2022/06/04 00:19:38;;;;;;;;;;;23.70;99.90;;;;;;4862791;29;19932;-60
2022/06/04 00:22:05;;;;;;;;;;;23.70;99.90;;;;;;4874943;29;19932;-60
2022/06/04 00:24:32;;;;;;;;;;;23.70;99.90;;;;;;4857708;29;19944;-62
2022/06/04 00:26:59;;;;;;;;;;;23.70;99.90;;;;;;4865105;29;19939;-61
2022/06/04 00:29:26;;;;;;;;;;;23.70;99.90;;;;;;4873856;29;20047;-61
2022/06/04 00:31:53;;;;;;;;;;;23.70;99.90;;;;;;4869041;29;19939;-60
2022/06/04 00:34:21;;;;;;;;;;;23.70;99.90;;;;;;4857808;29;19958;-59
2022/06/04 00:36:48;;;;;;;;;;;23.70;99.90;;;;;;4864250;29;19932;-59
2022/06/04 00:39:15;;;;;;;;;;;23.70;99.90;;;;;;4860637;29;19948;-59
2022/06/04 00:41:48;;;;;;;;;;;23.70;99.90;;;;;;4869894;29;19928;-60
2022/06/04 00:44:17;;;;;;;;;;;23.70;99.90;;;;;;4864290;29;19955;-59
2022/06/04 00:47:02;;;;;;;;;;;23.70;99.90;;;;;;4868100;29;19959;-58
2022/06/04 00:49:30;;;;;;;;;;;23.70;99.90;;;;;;4857827;29;20293;-57
2022/06/04 00:52:04;;;;;;;;;;;23.70;99.90;;;;;;4859277;29;20446;-61
2022/06/04 00:54:31;;;;;;;;;;;23.70;99.90;;;;;;4861752;29;19936;-59
2022/06/04 00:57:07;;;;;;;;;;;23.70;99.90;;;;;;4856225;29;19932;-57
2022/06/04 00:59:49;;;;;;;;;;;23.70;99.90;;;;;;4861493;29;19936;-58
2022/06/04 01:02:32;;;;;;;;;;;23.70;99.90;;;;;;4855186;29;19932;-61
2022/06/04 01:05:14;;;;;;;;;;;23.70;99.90;;;;;;4863020;29;19939;-58
2022/06/04 01:07:49;;;;;;;;;;;23.70;99.90;;;;;;4858178;29;19939;-60
2022/06/04 01:10:21;;;;;;;;;;;23.70;99.90;;;;;;4867885;29;20310;-61
2022/06/04 01:12:51;;;;;;;;;;;23.70;99.90;;;;;;4873270;29;19950;-61
2022/06/04 01:15:26;;;;;;;;;;;23.70;99.90;;;;;;4863883;29;20437;-59
2022/06/04 01:18:12;;;;;;;;;;;23.70;99.90;;;;;;4857727;29;19936;-62
2022/06/04 01:20:45;;;;;;;;;;;23.70;99.90;;;;;;4870815;29;20288;-63
2022/06/04 01:23:25;;;;;;;;;;;23.70;99.90;;;;;;4866162;29;19928;-60
2022/06/04 01:26:11;;;;;;;;;;;23.70;99.90;;;;;;4871873;29;19932;-58
2022/06/04 01:28:43;;;;;;;;;;;23.60;99.90;;;;;;4852425;29;19932;-60
2022/06/04 01:31:12;;;;;;;;;;;23.60;99.90;;;;;;4872992;29;19951;-61
2022/06/04 01:33:42;;;;;;;;;;;23.60;99.90;;;;;;4864585;29;20304;-60
2022/06/04 01:36:16;;;;;;;;;;;23.60;99.90;;;;;;4866649;29;19927;-60
2022/06/04 01:38:45;;;;;;;;;;;23.60;99.90;;;;;;4861780;29;20122;-58
2022/06/04 01:41:19;;;;;;;;;;;23.70;99.90;;;;;;4866437;29;19939;-61
2022/06/04 01:43:49;;;;;;;;;;;23.60;99.90;;;;;;4869049;29;20406;-58
2022/06/04 01:46:19;;;;;;;;;;;23.60;99.90;;;;;;4863789;29;19943;-60
2022/06/04 01:48:48;;;;;;;;;;;23.60;99.90;;;;;;4862072;29;19948;-57
2022/06/04 01:51:18;;;;;;;;;;;23.60;99.90;;;;;;4879016;29;19932;-60
2022/06/04 01:53:46;;;;;;;;;;;23.60;99.90;;;;;;4869569;29;19962;-60
2022/06/04 01:56:19;;;;;;;;;;;23.60;99.90;;;;;;4861145;29;19936;-57
2022/06/04 01:58:51;;;;;;;;;;;23.60;99.90;;;;;;4870911;29;19932;-57
2022/06/04 02:01:22;;;;;;;;;;;23.60;99.90;;;;;;4858193;29;19936;-61
2022/06/04 02:03:53;;;;;;;;;;;23.60;99.90;;;;;;4858900;29;19933;-59
2022/06/04 02:06:27;;;;;;;;;;;23.60;99.90;;;;;;4861359;29;19943;-59
2022/06/04 02:09:15;;;;;;;;;;;23.60;99.90;;;;;;4858103;29;19936;-60
2022/06/04 02:11:47;;;;;;;;;;;23.60;99.90;;;;;;4874039;29;19928;-60
2022/06/04 02:14:16;;;;;;;;;;;23.60;99.90;;;;;;4867438;29;19932;-60
2022/06/04 02:16:47;;;;;;;;;;;23.60;99.90;;;;;;4885222;29;19932;-59
2022/06/04 02:19:14;;;;;;;;;;;23.60;99.90;;;;;;4877036;29;19942;-62
2022/06/04 02:21:41;;;;;;;;;;;23.60;99.90;;;;;;4876616;29;20403;-58
2022/06/04 02:24:09;;;;;;;;;;;23.60;99.90;;;;;;4864551;29;19955;-60
2022/06/04 02:26:37;;;;;;;;;;;23.60;99.90;;;;;;4870192;29;19932;-60
2022/06/04 02:29:04;;;;;;;;;;;23.60;99.90;;;;;;4860041;29;19932;-59
2022/06/04 02:31:40;;;;;;;;;;;23.60;99.90;;;;;;4885279;29;19938;-60
2022/06/04 02:34:30;;;;;;;;;;;23.60;99.90;;;;;;4871667;29;19948;-60
2022/06/04 02:36:57;;;;;;;;;;;23.60;99.90;;;;;;4863558;29;20286;-57
2022/06/04 02:39:29;;;;;;;;;;;23.60;99.90;;;;;;4861112;29;19954;-59
2022/06/04 02:42:19;;;;;;;;;;;23.60;99.90;;;;;;4860567;29;19932;-59
2022/06/04 02:44:51;;;;;;;;;;;23.60;99.90;;;;;;4857533;29;19939;-59
2022/06/04 02:47:22;;;;;;;;;;;23.60;99.90;;;;;;4866357;29;19927;-60
2022/06/04 02:49:53;;;;;;;;;;;23.60;99.90;;;;;;4846367;29;20264;-59
2022/06/04 02:52:21;;;;;;;;;;;23.60;99.90;;;;;;4873106;29;20319;-60
2022/06/04 02:54:55;;;;;;;;;;;23.60;99.90;;;;;;4869398;29;19935;-58
2022/06/04 02:57:24;;;;;;;;;;;23.60;99.90;;;;;;4855146;29;19932;-58
2022/06/04 02:59:52;;;;;;;;;;;23.50;99.90;;;;;;4864202;29;19932;-60
2022/06/04 03:02:20;;;;;;;;;;;23.50;99.90;;;;;;4860945;29;20629;-59
2022/06/04 03:04:51;;;;;;;;;;;23.50;99.90;;;;;;4861546;29;19931;-60
2022/06/04 03:07:19;;;;;;;;;;;23.60;99.90;;;;;;4866506;29;19928;-59
2022/06/04 03:09:48;;;;;;;;;;;23.50;99.90;;;;;;4862608;29;19931;-59
2022/06/04 03:12:15;;;;;;;;;;;23.60;99.90;;;;;;4855476;29;19939;-60
2022/06/04 03:14:43;;;;;;;;;;;23.50;99.90;;;;;;4867990;29;19935;-61
2022/06/04 03:17:11;;;;;;;;;;;23.50;99.90;;;;;;4856025;29;19932;-59
2022/06/04 03:19:38;;;;;;;;;;;23.50;99.90;;;;;;4866252;29;20317;-60
2022/06/04 03:22:06;;;;;;;;;;;23.50;99.90;;;;;;4856986;29;20009;-59
2022/06/04 03:24:33;;;;;;;;;;;23.50;99.90;;;;;;4862992;29;19928;-59
2022/06/04 03:27:00;;;;;;;;;;;23.50;99.90;;;;;;4863231;29;19932;-58
2022/06/04 03:29:27;;;;;;;;;;;23.50;99.90;;;;;;4862071;29;19939;-60
2022/06/04 03:31:54;;;;;;;;;;;23.50;99.90;;;;;;4864428;29;19929;-60
2022/06/04 03:34:21;;;;;;;;;;;23.50;99.90;;;;;;4865266;29;19938;-59
2022/06/04 03:36:48;;;;;;;;;;;23.50;99.90;;;;;;4856235;29;19944;-59
2022/06/04 03:39:15;;;;;;;;;;;23.50;99.90;;;;;;4863047;29;20304;-60
2022/06/04 03:41:42;;;;;;;;;;;23.50;99.90;;;;;;4875384;29;20331;-58
2022/06/04 03:44:10;;;;;;;;;;;23.50;99.90;;;;;;4868700;29;19932;-60
2022/06/04 03:46:37;;;;;;;;;;;23.50;99.90;;;;;;4863195;29;19932;-58
2022/06/04 03:49:05;;;;;;;;;;;23.50;99.90;;;;;;4856239;29;20405;-61
2022/06/04 03:51:32;;;;;;;;;;;23.50;99.90;;;;;;4869665;29;19940;-60
2022/06/04 03:53:59;;;;;;;;;;;23.50;99.90;;;;;;4859242;29;19928;-60
2022/06/04 03:56:26;;;;;;;;;;;23.50;99.90;;;;;;4871774;29;20316;-60
2022/06/04 03:58:53;;;;;;;;;;;23.50;99.90;;;;;;4856261;29;19936;-59
2022/06/04 04:01:25;;;;;;;;;;;23.50;99.90;;;;;;4857813;29;19931;-59
2022/06/04 04:03:53;;;;;;;;;;;23.50;99.90;;;;;;4862639;29;20332;-59
2022/06/04 04:06:23;;;;;;;;;;;23.50;99.90;;;;;;4862165;29;19939;-59
2022/06/04 04:08:51;;;;;;;;;;;23.50;99.90;;;;;;4865413;29;19935;-59
2022/06/04 04:11:19;;;;;;;;;;;23.50;99.90;;;;;;4859185;29;19935;-59
2022/06/04 04:13:47;;;;;;;;;;;23.50;99.90;;;;;;4865120;29;20006;-58
2022/06/04 04:16:15;;;;;;;;;;;23.50;99.90;;;;;;4885940;29;19927;-60
2022/06/04 04:18:42;;;;;;;;;;;23.50;99.90;;;;;;4876578;29;19934;-58
2022/06/04 04:21:14;;;;;;;;;;;23.50;99.90;;;;;;4873520;29;20273;-58
2022/06/04 04:23:42;;;;;;;;;;;23.40;99.90;;;;;;4868084;29;19932;-58
2022/06/04 04:26:10;;;;;;;;;;;23.50;99.90;;;;;;4865351;29;20312;-59
2022/06/04 04:28:37;;;;;;;;;;;23.50;99.90;;;;;;4870329;29;19927;-59
2022/06/04 04:31:12;;;;;;;;;;;23.40;99.90;;;;;;4866508;29;19932;-58
2022/06/04 04:33:39;;;;;;;;;;;23.50;99.90;;;;;;4860447;29;19952;-61
2022/06/04 04:36:07;;;;;;;;;;;23.40;99.90;;;;;;4862372;29;20775;-57
2022/06/04 04:38:34;;;;;;;;;;;23.50;99.90;;;;;;4865216;29;19932;-60
2022/06/04 04:41:01;;;;;;;;;;;23.50;99.90;;;;;;4876968;29;20038;-59
2022/06/04 04:43:28;;;;;;;;;;;23.50;99.90;;;;;;4872550;29;19943;-59
2022/06/04 04:46:00;;;;;;;;;;;23.50;99.90;;;;;;4859739;29;19943;-61
2022/06/04 04:48:28;;;;;;;;;;;23.50;99.90;;;;;;4861641;29;20356;-61
2022/06/04 04:50:55;;;;;;;;;;;23.50;99.90;;;;;;4860321;29;19932;-58
2022/06/04 04:53:23;;;;;;;;;;;23.50;99.90;;;;;;4873399;29;20163;-58
2022/06/04 04:55:50;;;;;;;;;;;23.40;99.90;;;;;;4874106;29;19932;-61
2022/06/04 04:58:17;;;;;;;;;;;23.50;99.90;;;;;;4857787;29;20041;-60
2022/06/04 05:00:45;;;;;;;;;;;23.40;99.90;;;;;;4884511;29;19934;-61
2022/06/04 05:03:12;;;;;;;;;;;23.40;99.90;;;;;;4871528;29;19939;-60
2022/06/04 05:05:39;;;;;;;;;;;23.40;99.90;;;;;;4858970;29;19928;-61
2022/06/04 05:08:06;;;;;;;;;;;23.40;99.90;;;;;;4875314;29;20328;-62
2022/06/04 05:10:33;;;;;;;;;;;23.40;99.90;;;;;;4872394;29;20404;-60
2022/06/04 05:13:01;;;;;;;;;;;23.40;99.90;;;;;;4860284;29;19940;-60
2022/06/04 05:15:28;;;;;;;;;;;23.40;99.90;;;;;;4875058;29;19935;-59
2022/06/04 05:17:55;;;;;;;;;;;23.40;99.90;;;;;;4874439;29;19931;-64
2022/06/04 05:20:22;;;;;;;;;;;23.40;99.90;;;;;;4874984;29;19935;-62
2022/06/04 05:22:49;;;;;;;;;;;23.40;99.70;;;;;;4872704;29;19954;-65
2022/06/04 05:25:16;;;;;;;;;;;23.30;99.80;;;;;;4872190;29;19936;-63
2022/06/04 05:27:43;;;;;;;;;;;23.40;99.70;;;;;;4870786;29;20293;-60
2022/06/04 05:30:11;;;;;;;;;;;23.40;99.60;;;;;;4871383;29;19948;-61
2022/06/04 05:32:39;;;;;;;;;;;23.40;99.60;;;;;;4857829;29;19932;-60
2022/06/04 05:35:06;;;;;;;;;;;23.30;99.50;;;;;;4870446;29;20328;-60
2022/06/04 05:37:33;;;;;;;;;;;23.40;99.60;;;;;;4869017;29;20396;-61
2022/06/04 05:40:05;;;;;;;;;;;23.40;99.50;;;;;;4860869;29;19928;-60
2022/06/04 05:42:32;;;;;;;;;;;23.40;99.70;;;;;;4876280;29;20266;-60
2022/06/04 05:45:00;;;;;;;;;;;23.40;99.60;;;;;;4863497;29;19928;-63
2022/06/04 05:47:27;;;;;;;;;;;23.40;99.60;;;;;;4870619;29;19947;-61
2022/06/04 05:49:54;;;;;;;;;;;23.40;99.70;;;;;;4872137;29;19932;-57
2022/06/04 05:52:23;;;;;;;;;;;23.40;99.80;;;;;;4856178;29;19935;-58
2022/06/04 05:54:50;;;;;;;;;;;23.40;99.80;;;;;;4854759;29;19932;-64
2022/06/04 05:57:17;;;;;;;;;;;23.40;99.90;;;;;;4872297;29;19935;-58
2022/06/04 05:59:44;;;;;;;;;;;23.40;99.80;;;;;;4873304;29;20407;-60
2022/06/04 06:02:12;;;;;;;;;;;23.40;99.90;;;;;;4875498;29;20462;-61
2022/06/04 06:04:39;;;;;;;;;;;23.40;99.90;;;;;;4855537;29;19935;-59
2022/06/04 06:07:07;;;;;;;;;;;23.40;99.90;;;;;;4859880;29;19931;-55
2022/06/04 06:09:34;;;;;;;;;;;23.40;99.90;;;;;;4870030;29;19928;-59
2022/06/04 06:12:01;;;;;;;;;;;23.40;99.90;;;;;;4870764;29;19932;-59
2022/06/04 06:14:28;;;;;;;;;;;23.50;99.90;;;;;;4873003;29;19939;-57
2022/06/04 06:16:56;;;;;;;;;;;23.50;99.90;;;;;;4874644;29;19932;-58
2022/06/04 06:19:23;;;;;;;;;;;23.50;99.90;;;;;;4876874;29;19928;-61
2022/06/04 06:21:51;;;;;;;;;;;23.50;99.90;;;;;;4862892;29;20423;-59
2022/06/04 06:24:20;;;;;;;;;;;23.50;99.90;;;;;;4874282;29;19928;-60
2022/06/04 06:26:49;;;;;;;;;;;23.40;99.90;;;;;;4868998;29;20404;-60
2022/06/04 06:29:17;;;;;;;;;;;23.40;99.80;;;;;;4858355;29;19947;-60
2022/06/04 06:31:45;;;;;;;;;;;23.40;99.80;;;;;;4874737;29;19928;-60
2022/06/04 06:34:12;;;;;;;;;;;23.40;99.80;;;;;;4860906;29;19932;-62
2022/06/04 06:36:39;;;;;;;;;;;23.40;99.80;;;;;;4884116;29;19958;-62
2022/06/04 06:39:06;;;;;;;;;;;23.40;99.70;;;;;;4867277;29;20431;-62
2022/06/04 06:41:34;;;;;;;;;;;23.40;99.90;;;;;;4877604;29;20317;-58
2022/06/04 06:44:01;;;;;;;;;;;23.40;99.80;;;;;;4876916;29;19931;-59
2022/06/04 06:46:32;;;;;;;;;;;23.40;99.70;;;;;;4879347;29;19946;-60
2022/06/04 06:49:00;;;;;;;;;;;23.40;99.70;;;;;;4875306;29;19932;-60
2022/06/04 06:51:29;;;;;;;;;;;23.40;99.70;;;;;;4864794;29;19939;-56
2022/06/04 06:53:57;;;;;;;;;;;23.40;99.90;;;;;;4867058;29;19951;-58
2022/06/04 06:56:26;;;;;;;;;;;23.40;99.70;;;;;;4872438;29;19927;-60
2022/06/04 06:58:54;;;;;;;;;;;23.40;99.70;;;;;;4870975;29;19928;-61
2022/06/04 07:01:21;;;;;;;;;;;23.40;99.80;;;;;;4870725;29;20431;-58
2022/06/04 07:03:48;;;;;;;;;;;23.40;99.80;;;;;;4865929;29;20356;-58
2022/06/04 07:06:26;;;;;;;;;;;23.40;99.80;;;;;;4868399;29;20483;-60
2022/06/04 07:08:53;;;;;;;;;;;23.40;99.90;;;;;;4864450;29;19932;-59
2022/06/04 07:11:20;;;;;;;;;;;23.40;99.90;;;;;;4873037;29;20021;-57
2022/06/04 07:13:48;;;;;;;;;;;23.40;99.90;;;;;;4872792;29;19935;-60
2022/06/04 07:16:15;;;;;;;;;;;23.40;99.90;;;;;;4866978;29;20324;-60
2022/06/04 07:18:42;;;;;;;;;;;23.50;99.90;;;;;;4869569;29;19987;-58
2022/06/04 07:21:09;;;;;;;;;;;23.40;99.90;;;;;;4867289;29;19928;-60
2022/06/04 07:23:38;;;;;;;;;;;23.50;99.90;;;;;;4852626;29;20591;-59
2022/06/04 07:26:06;;;;;;;;;;;23.50;99.90;;;;;;4870160;29;19931;-59
2022/06/04 07:28:36;;;;;;;;;;;23.50;99.90;;;;;;4864780;29;19934;-60
2022/06/04 07:31:05;;;;;;;;;;;23.50;99.90;;;;;;4878502;29;19939;-58
2022/06/04 07:33:33;;;;;;;;;;;23.50;99.90;;;;;;4871312;29;19939;-60
2022/06/04 07:36:00;;;;;;;;;;;23.50;99.90;;;;;;4871184;29;20423;-59
2022/06/04 07:38:28;;;;;;;;;;;23.50;99.90;;;;;;4873303;29;19927;-60
2022/06/04 07:40:55;;;;;;;;;;;23.50;99.90;;;;;;4866516;29;19947;-59
2022/06/04 07:43:23;;;;;;;;;;;23.50;99.90;;;;;;4866810;29;19932;-62
2022/06/04 07:45:50;;;;;;;;;;;23.50;99.90;;;;;;4880929;29;19928;-58
2022/06/04 07:48:18;;;;;;;;;;;23.50;99.90;;;;;;4872199;29;19951;-60
2022/06/04 07:50:45;;;;;;;;;;;23.50;99.90;;;;;;4872517;29;19936;-59
2022/06/04 07:53:12;;;;;;;;;;;23.50;99.90;;;;;;4864010;29;19928;-60
2022/06/04 07:55:40;;;;;;;;;;;23.50;99.90;;;;;;4874935;29;19928;-59
2022/06/04 07:58:08;;;;;;;;;;;23.50;99.90;;;;;;4861965;29;19932;-62
2022/06/04 08:00:38;;;;;;;;;;;23.50;99.90;;;;;;4871390;29;19928;-58
2022/06/04 08:03:06;;;;;;;;;;;23.60;99.90;;;;;;4875150;29;19980;-65
2022/06/04 08:05:34;;;;;;;;;;;23.60;99.90;;;;;;4882851;29;19936;-55
2022/06/04 08:08:09;;;;;;;;;;;23.60;99.90;;;;;;4874430;29;19936;-60
2022/06/04 08:10:36;;;;;;;;;;;23.60;99.90;;;;;;4886087;29;19961;-57
2022/06/04 08:13:08;;;;;;;;;;;23.60;99.90;;;;;;4875742;29;19947;-58
2022/06/04 08:15:35;;;;;;;;;;;23.70;99.90;;;;;;4874258;29;20341;-64
2022/06/04 08:18:02;;;;;;;;;;;23.70;99.90;;;;;;4870234;29;19958;-60
2022/06/04 08:20:29;;;;;;;;;;;23.80;99.90;;;;;;4871039;29;19956;-60
2022/06/04 08:22:57;;;;;;;;;;;23.90;99.90;;;;;;4873603;29;20399;-58
2022/06/04 08:25:24;;;;;;;;;;;23.90;99.90;;;;;;4878061;29;19942;-60
2022/06/04 08:27:51;;;;;;;;;;;24.00;99.90;;;;;;4871963;29;19931;-58
2022/06/04 08:30:18;;;;;;;;;;;24.00;99.90;;;;;;4879054;29;19931;-61
2022/06/04 08:32:46;;;;;;;;;;;24.00;99.90;;;;;;4859090;29;19974;-59
2022/06/04 08:35:13;;;;;;;;;;;24.10;99.90;;;;;;4876421;29;19936;-58
2022/06/04 08:37:40;;;;;;;;;;;24.10;99.90;;;;;;4876128;29;19939;-59
2022/06/04 08:40:19;;;;;;;;;;;24.10;99.90;;;;;;4872133;29;19936;-60
2022/06/04 08:42:52;;;;;;;;;;;24.20;99.90;;;;;;4870930;29;20403;-58
2022/06/04 08:45:20;;;;;;;;;;;24.20;99.90;;;;;;4874666;29;19931;-60
2022/06/04 08:47:48;;;;;;;;;;;24.20;99.90;;;;;;4874780;29;19935;-58
2022/06/04 08:50:23;;;;;;;;;;;24.20;99.90;;;;;;4870267;29;19970;-59
2022/06/04 08:52:52;;;;;;;;;;;24.30;99.90;;;;;;4879209;29;19948;-59
2022/06/04 08:58:11;;;;;;;;;;;24.30;99.90;;;;;;4875437;29;20392;-59
2022/06/04 09:00:43;;;;;;;;;;;24.30;99.90;;;;;;4877120;29;19928;-58
2022/06/04 09:03:29;;;;;;;;;;;24.40;99.90;;;;;;4848103;29;19943;-60
2022/06/04 09:05:56;;;;;;;;;;;24.40;99.90;;;;;;4868842;29;19932;-55
2022/06/04 09:08:42;;;;;;;;;;;24.40;99.90;;;;;;4875344;29;20026;-62
2022/06/04 09:11:18;;;;;;;;;;;24.40;99.90;;;;;;4878684;29;20269;-60
2022/06/04 09:14:02;;;;;;;;;;;24.40;99.90;;;;;;4875920;29;19958;-60
2022/06/04 09:16:34;;;;;;;;;;;24.40;99.90;;;;;;4872795;29;20002;-61
2022/06/04 09:19:05;;;;;;;;;;;24.40;99.90;;;;;;4869852;29;19947;-61
2022/06/04 09:21:35;;;;;;;;;;;24.40;99.90;;;;;;4861578;29;19928;-60
2022/06/04 09:24:03;;;;;;;;;;;24.40;99.90;;;;;;4880673;29;19932;-60
2022/06/04 09:26:33;;;;;;;;;;;24.40;99.90;;;;;;4870792;29;19939;-60
2022/06/04 09:29:09;;;;;;;;;;;24.30;99.90;;;;;;4878220;29;19943;-65
2022/06/04 09:31:43;;;;;;;;;;;24.40;99.90;;;;;;4883253;29;20308;-62
2022/06/04 09:34:14;;;;;;;;;;;24.40;99.90;;;;;;4871214;29;19932;-62
2022/06/04 09:36:45;;;;;;;;;;;24.40;99.90;;;;;;4877262;29;19943;-64
2022/06/04 09:39:19;;;;;;;;;;;24.40;99.90;;;;;;4866558;29;19958;-65
2022/06/04 09:42:06;;;;;;;;;;;24.40;99.90;;;;;;4879746;29;19936;-63
2022/06/04 09:44:36;;;;;;;;;;;24.50;99.90;;;;;;4866606;29;20333;-62
2022/06/04 09:47:20;;;;;;;;;;;24.50;99.90;;;;;;4881376;29;20249;-63
2022/06/04 09:49:53;;;;;;;;;;;24.50;99.90;;;;;;4884031;29;19939;-66
2022/06/04 09:52:32;;;;;;;;;;;24.50;99.90;;;;;;4880242;29;19928;-63
2022/06/04 09:55:07;;;;;;;;;;;24.50;99.90;;;;;;4860708;29;19931;-61
2022/06/04 09:57:36;;;;;;;;;;;24.50;99.90;;;;;;4867240;29;20411;-63
2022/06/04 10:00:18;;;;;;;;;;;24.50;99.90;;;;;;4868888;29;19928;-64
2022/06/04 10:02:52;;;;;;;;;;;24.50;99.90;;;;;;4874059;29;20276;-66
2022/06/04 10:05:21;;;;;;;;;;;24.50;99.90;;;;;;4875373;29;19932;-63
2022/06/04 10:07:48;;;;;;;;;;;24.50;99.90;;;;;;4870225;29;19932;-65
2022/06/04 10:10:19;;;;;;;;;;;24.50;99.90;;;;;;4875450;29;19928;-61
2022/06/04 10:15:32;;;;;;;;;;;24.50;99.90;;;;;;4869988;29;19935;-64
2022/06/04 10:18:05;;;;;;;;;;;24.50;99.90;;;;;;4874763;29;20380;-64
2022/06/04 10:20:33;;;;;;;;;;;24.50;99.90;;;;;;4875497;29;19939;-68
2022/06/04 10:23:00;;;;;;;;;;;24.50;99.90;;;;;;4875155;29;19938;-61
2022/06/04 10:25:40;;;;;;;;;;;24.50;99.90;;;;;;4873923;29;20406;-63
2022/06/04 10:28:08;;;;;;;;;;;24.50;99.90;;;;;;4872373;29;19928;-62
2022/06/04 10:30:36;;;;;;;;;;;24.50;99.90;;;;;;4867570;29;19942;-61
2022/06/04 10:33:06;;;;;;;;;;;24.50;99.90;;;;;;4864176;29;20364;-62
2022/06/04 10:35:42;;;;;;;;;;;24.40;99.90;;;;;;4866634;29;20425;-62
2022/06/04 10:38:23;;;;;;;;;;;24.30;99.90;;;;;;4874387;29;19935;-62
2022/06/04 10:40:57;;;;;;;;;;;24.30;99.90;;;;;;4874260;29;20407;-59
2022/06/04 10:43:43;;;;;;;;;;;24.30;99.90;;;;;;4841333;29;19952;-62
2022/06/04 10:46:11;;;;;;;;;;;24.30;99.90;;;;;;4860095;29;19940;-62
2022/06/04 10:48:47;;;;;;;;;;;24.30;99.90;;;;;;4858147;29;20023;-58
2022/06/04 10:51:25;;;;;;;;;;;24.30;99.90;;;;;;4867554;29;19939;-63
2022/06/04 10:53:55;;;;;;;;;;;24.30;99.90;;;;;;4864999;29;19963;-59
2022/06/04 10:56:43;;;;;;;;;;;24.30;99.90;;;;;;4877582;29;19939;-63
2022/06/04 10:59:10;;;;;;;;;;;24.30;99.90;;;;;;4857711;29;19932;-61
2022/06/04 11:01:43;;;;;;;;;;;24.20;99.90;;;;;;4866055;29;19931;-64
2022/06/04 11:04:33;;;;;;;;;;;24.30;99.90;;;;;;4875357;29;20045;-60
2022/06/04 11:07:08;;;;;;;;;;;24.30;99.90;;;;;;4862407;29;19955;-62
2022/06/04 11:09:38;;;;;;;;;;;24.20;99.90;;;;;;4858276;29;19932;-60
2022/06/04 11:12:17;;;;;;;;;;;24.20;99.90;;;;;;4856589;29;20285;-65
2022/06/04 11:14:44;;;;;;;;;;;24.20;99.90;;;;;;4858177;29;20423;-61
2022/06/04 11:17:26;;;;;;;;;;;24.30;99.90;;;;;;4862093;29;20021;-62
2022/06/04 11:20:03;;;;;;;;;;;24.20;99.90;;;;;;4873233;29;20368;-63
2022/06/04 11:22:35;;;;;;;;;;;24.20;99.90;;;;;;4855641;29;19942;-63
2022/06/04 11:25:19;;;;;;;;;;;24.20;99.90;;;;;;4880473;29;19939;-64
2022/06/04 11:27:49;;;;;;;;;;;24.20;99.90;;;;;;4872512;29;19927;-61
2022/06/04 11:30:21;;;;;;;;;;;24.30;99.90;;;;;;4863839;29;19932;-63
2022/06/04 11:33:02;;;;;;;;;;;24.20;99.90;;;;;;4874177;29;20043;-61
2022/06/04 11:35:42;;;;;;;;;;;24.20;99.90;;;;;;4867102;29;20316;-59
2022/06/04 11:38:24;;;;;;;;;;;24.30;99.90;;;;;;4877862;29;19935;-62
2022/06/04 11:41:16;;;;;;;;;;;24.20;99.90;;;;;;4879741;29;19928;-60
2022/06/04 11:44:02;;;;;;;;;;;24.20;99.90;;;;;;4879996;29;19932;-62
2022/06/04 11:46:40;;;;;;;;;;;24.20;99.90;;;;;;4886358;29;19939;-63
2022/06/04 11:49:16;;;;;;;;;;;24.30;99.90;;;;;;4883172;29;19927;-62
2022/06/04 11:51:49;;;;;;;;;;;24.30;99.90;;;;;;4881603;29;19931;-60
2022/06/04 11:54:40;;;;;;;;;;;24.30;99.90;;;;;;4875202;29;20260;-58
2022/06/04 11:57:27;;;;;;;;;;;24.40;99.90;;;;;;4870165;29;19931;-60
2022/06/04 11:59:57;;;;;;;;;;;24.40;99.90;;;;;;4859210;29;20292;-60
2022/06/04 12:02:30;;;;;;;;;;;24.50;99.90;;;;;;4872806;29;20438;-57
2022/06/04 12:05:02;;;;;;;;;;;24.50;99.90;;;;;;4876166;29;20404;-60
2022/06/04 12:07:38;;;;;;;;;;;24.50;99.90;;;;;;4870734;29;19936;-59
2022/06/04 12:10:40;;;;;;;;;;;24.50;99.90;;;;;;4882969;29;19928;-58
2022/06/04 12:13:20;;;;;;;;;;;24.50;99.90;;;;;;4880015;29;20427;-60
2022/06/04 12:16:03;;;;;;;;;;;24.60;99.90;;;;;;4879144;29;19935;-61
2022/06/04 12:18:33;;;;;;;;;;;24.60;99.90;;;;;;4862327;29;19935;-65
2022/06/04 12:24:16;;;;;;;;;;;24.60;99.90;;;;;;4877208;29;19932;-66
2022/06/04 12:26:47;;;;;;;;;;;24.60;99.90;;;;;;4883359;29;19935;-60
2022/06/04 12:29:31;;;;;;;;;;;24.60;99.90;;;;;;4880697;29;19932;-64
2022/06/04 12:31:59;;;;;;;;;;;24.70;99.90;;;;;;4876873;29;19932;-56
2022/06/04 12:34:37;;;;;;;;;;;24.70;99.90;;;;;;4875774;29;19932;-59
2022/06/04 12:37:05;;;;;;;;;;;24.60;99.90;;;;;;4878935;29;19940;-59
2022/06/04 12:39:33;;;;;;;;;;;24.60;99.90;;;;;;4854307;29;19928;-61
2022/06/04 12:42:02;;;;;;;;;;;24.60;99.90;;;;;;4877510;29;19954;-59
2022/06/04 12:44:31;;;;;;;;;;;24.70;99.90;;;;;;4878441;29;19931;-56
2022/06/04 12:47:10;;;;;;;;;;;24.70;99.90;;;;;;4879560;29;19939;-55
2022/06/04 12:49:56;;;;;;;;;;;24.70;99.90;;;;;;4867115;29;20400;-60
2022/06/04 12:52:35;;;;;;;;;;;24.70;99.90;;;;;;4868803;29;19928;-62
2022/06/04 12:55:05;;;;;;;;;;;24.70;99.90;;;;;;4882653;29;19927;-62
2022/06/04 12:57:41;;;;;;;;;;;24.70;99.90;;;;;;4881989;29;20003;-62
2022/06/04 13:00:19;;;;;;;;;;;24.70;99.90;;;;;;4862710;29;19929;-63
2022/06/04 13:03:12;;;;;;;;;;;24.70;99.90;;;;;;4878601;29;20327;-60
2022/06/04 13:05:54;;;;;;;;;;;24.70;99.90;;;;;;4878248;29;19935;-63
2022/06/04 13:08:21;;;;;;;;;;;24.70;99.90;;;;;;4865594;29;20419;-62
2022/06/04 13:11:01;;;;;;;;;;;24.70;99.90;;;;;;4872768;29;19939;-67
2022/06/04 13:13:35;;;;;;;;;;;24.60;99.90;;;;;;4878278;29;19938;-60
2022/06/04 13:16:04;;;;;;;;;;;24.70;99.90;;;;;;4879114;29;20002;-61
2022/06/04 13:18:39;;;;;;;;;;;24.70;99.90;;;;;;4863794;29;20034;-61
2022/06/04 13:21:11;;;;;;;;;;;24.70;99.90;;;;;;4868717;29;19927;-60
2022/06/04 13:23:44;;;;;;;;;;;24.80;99.90;;;;;;4871754;29;19928;-63
2022/06/04 13:26:33;;;;;;;;;;;24.80;99.90;;;;;;4875910;29;19944;-62
2022/06/04 13:29:02;;;;;;;;;;;24.80;99.90;;;;;;4868170;29;20327;-66
2022/06/04 13:31:31;;;;;;;;;;;24.80;99.90;;;;;;4866453;29;19927;-65
2022/06/04 13:34:10;;;;;;;;;;;24.80;99.90;;;;;;4884830;29;19943;-63
2022/06/04 13:36:38;;;;;;;;;;;24.80;99.90;;;;;;4884120;29;19980;-63
2022/06/04 13:39:11;;;;;;;;;;;24.80;99.90;;;;;;4875703;29;19939;-65
2022/06/04 13:44:27;;;;;;;;;;;24.80;99.90;;;;;;4874346;29;19947;-65
2022/06/04 13:47:10;;;;;;;;;;;24.80;99.90;;;;;;4882255;29;19938;-64
2022/06/04 13:49:37;;;;;;;;;;;24.80;99.90;;;;;;4874091;29;20292;-64
2022/06/04 13:52:11;;;;;;;;;;;24.80;99.90;;;;;;4872255;29;19932;-66
2022/06/04 13:54:40;;;;;;;;;;;24.90;99.90;;;;;;4871059;29;20330;-66
2022/06/04 13:57:11;;;;;;;;;;;24.90;99.90;;;;;;4876942;29;19932;-66
2022/06/04 13:59:42;;;;;;;;;;;25.00;99.90;;;;;;4871544;29;20000;-64
2022/06/04 14:02:13;;;;;;;;;;;25.00;99.90;;;;;;4875402;29;20582;-66
2022/06/04 14:07:35;;;;;;;;;;;25.00;99.90;;;;;;4860261;29;19934;-59
2022/06/04 14:10:08;;;;;;;;;;;25.00;99.90;;;;;;4867757;29;20416;-63
2022/06/04 14:12:40;;;;;;;;;;;25.00;99.90;;;;;;4847977;29;19929;-64
2022/06/04 14:15:10;;;;;;;;;;;25.10;99.90;;;;;;4870607;29;20293;-63
2022/06/04 14:17:49;;;;;;;;;;;25.20;99.90;;;;;;4867584;29;19932;-64
2022/06/04 14:20:22;;;;;;;;;;;25.20;99.80;;;;;;4860367;29;19932;-63
2022/06/04 14:23:04;;;;;;;;;;;25.30;99.70;;;;;;4865372;29;20323;-64
2022/06/04 14:25:41;;;;;;;;;;;25.30;99.50;;;;;;4854328;29;19932;-63
2022/06/04 14:28:09;;;;;;;;;;;25.40;99.30;;;;;;4862324;29;20331;-62
2022/06/04 14:30:39;;;;;;;;;;;25.40;99.20;;;;;;4855055;29;19932;-64
2022/06/04 14:33:16;;;;;;;;;;;25.40;99.00;;;;;;4865727;29;19928;-63
2022/06/04 14:35:43;;;;;;;;;;;25.50;98.90;;;;;;4872753;29;20384;-60
2022/06/04 14:38:16;;;;;;;;;;;25.50;98.80;;;;;;4845148;29;19947;-65
2022/06/04 14:40:44;;;;;;;;;;;25.60;98.70;;;;;;4868757;29;20372;-61
2022/06/04 14:43:27;;;;;;;;;;;25.60;98.50;;;;;;4870437;29;19938;-63
2022/06/04 14:46:03;;;;;;;;;;;25.60;98.40;;;;;;4856968;29;19935;-61
2022/06/04 14:48:33;;;;;;;;;;;25.60;98.40;;;;;;4854258;29;19936;-60
2022/06/04 14:51:09;;;;;;;;;;;25.50;98.40;;;;;;4874472;29;20010;-65
2022/06/04 14:53:37;;;;;;;;;;;25.60;98.30;;;;;;4871203;29;19943;-64
2022/06/04 14:56:04;;;;;;;;;;;25.60;98.10;;;;;;4873334;29;20320;-61
2022/06/04 14:58:40;;;;;;;;;;;25.70;97.90;;;;;;4857135;29;19942;-64
2022/06/04 15:01:13;;;;;;;;;;;25.70;97.70;;;;;;4875184;29;19943;-68